createdAt,value
2023-04-16T00:00:35.986Z,11.94
2023-04-16T00:03:16.807Z,11.98
2023-04-16T00:06:05.047Z,12.01
2023-04-16T00:08:42.593Z,11.99
2023-04-16T00:11:21.686Z,12.04
2023-04-16T00:13:57.217Z,12.06
2023-04-16T00:16:41.059Z,12.02
2023-04-16T00:19:16.484Z,11.97
2023-04-16T00:21:48.947Z,11.97
2023-04-16T00:24:40.892Z,11.90
2023-04-16T00:27:14.481Z,11.86
2023-04-16T00:30:05.316Z,11.83
2023-04-16T00:32:47.806Z,11.74
2023-04-16T00:35:24.564Z,11.74
2023-04-16T00:38:04.943Z,11.69
2023-04-16T00:40:42.550Z,11.48
2023-04-16T00:43:35.967Z,11.59
2023-04-16T00:46:18.288Z,11.53
2023-04-16T00:49:01.924Z,11.47
2023-04-16T00:51:37.889Z,11.49
2023-04-16T00:54:27.174Z,11.41
2023-04-16T00:57:05.406Z,11.45
2023-04-16T00:59:42.317Z,11.43
2023-04-16T01:02:21.134Z,11.35
2023-04-16T01:05:06.665Z,11.35
2023-04-16T01:07:47.732Z,11.34
2023-04-16T01:10:33.948Z,11.29
2023-04-16T01:13:10.624Z,11.17
2023-04-16T01:15:52.188Z,11.26
2023-04-16T01:18:26.115Z,11.26
2023-04-16T01:21:01.902Z,11.22
2023-04-16T01:23:40.083Z,11.18
2023-04-16T01:26:12.182Z,11.12
2023-04-16T01:28:47.560Z,11.15
2023-04-16T01:31:21.068Z,11.07
2023-04-16T01:34:03.552Z,11.10
2023-04-16T01:36:48.109Z,11.07
2023-04-16T01:39:31.831Z,11.06
2023-04-16T01:42:09.443Z,11.05
2023-04-16T01:44:46.963Z,11.05
2023-04-16T01:47:21.993Z,10.98
2023-04-16T01:50:02.621Z,11.05
2023-04-16T01:52:40.984Z,11.04
2023-04-16T01:55:20.235Z,10.85
2023-04-16T01:57:54.333Z,11.03
2023-04-16T02:00:34.665Z,11.00
2023-04-16T02:03:07.279Z,10.97
2023-04-16T02:05:43.048Z,10.92
2023-04-16T02:08:21.468Z,10.96
2023-04-16T02:11:09.998Z,10.72
2023-04-16T02:13:46.997Z,10.65
2023-04-16T02:16:24.350Z,10.53
2023-04-16T02:19:05.886Z,10.46
2023-04-16T02:21:47.198Z,10.37
2023-04-16T02:24:22.693Z,10.24
2023-04-16T02:26:59.019Z,10.25
2023-04-16T02:29:36.257Z,10.26
2023-04-16T02:32:21.140Z,10.22
2023-04-16T02:35:06.342Z,10.20
2023-04-16T02:37:41.042Z,10.20
2023-04-16T02:40:28.006Z,10.14
2023-04-16T02:43:04.232Z,10.00
2023-04-16T02:45:38.704Z,10.17
2023-04-16T02:48:14.821Z,10.16
2023-04-16T02:50:53.350Z,10.19
2023-04-16T02:53:27.234Z,10.10
2023-04-16T02:56:09.437Z,10.23
2023-04-16T02:58:42.651Z,10.19
2023-04-16T03:01:16.676Z,10.21
2023-04-16T03:03:55.230Z,10.19
2023-04-16T03:06:39.077Z,10.20
2023-04-16T03:09:13.304Z,10.21
2023-04-16T03:11:57.280Z,10.22
2023-04-16T03:14:33.403Z,10.12
2023-04-16T03:17:08.894Z,10.29
2023-04-16T03:19:45.838Z,10.36
2023-04-16T03:22:18.916Z,10.32
2023-04-16T03:25:05.025Z,10.27
2023-04-16T03:27:40.842Z,10.27
2023-04-16T03:30:17.464Z,10.28
2023-04-16T03:32:54.980Z,10.32
2023-04-16T03:35:29.576Z,10.35
2023-04-16T03:38:07.433Z,10.33
2023-04-16T03:40:46.157Z,10.35
2023-04-16T03:43:27.532Z,10.40
2023-04-16T03:46:02.800Z,10.39
2023-04-16T03:48:39.464Z,10.41
2023-04-16T03:51:21.213Z,10.40
2023-04-16T03:53:59.572Z,10.46
2023-04-16T03:56:46.081Z,10.47
2023-04-16T03:59:32.027Z,10.41
2023-04-16T04:02:07.710Z,10.48
2023-04-16T04:04:45.202Z,10.54
2023-04-16T04:07:20.810Z,10.46
2023-04-16T04:09:55.496Z,10.50
2023-04-16T04:12:31.235Z,10.52
2023-04-16T04:15:17.864Z,10.55
2023-04-16T04:17:55.824Z,10.53
2023-04-16T04:20:29.112Z,10.52
2023-04-16T04:23:09.260Z,10.53
2023-04-16T04:25:44.042Z,10.54
2023-04-16T04:28:22.047Z,10.59
2023-04-16T04:30:58.954Z,10.52
2023-04-16T04:33:33.288Z,10.44
2023-04-16T04:36:14.704Z,10.67
2023-04-16T04:38:51.510Z,10.71
2023-04-16T04:41:29.975Z,10.75
2023-04-16T04:44:05.406Z,10.80
2023-04-16T04:46:47.580Z,10.79
2023-04-16T04:49:39.670Z,10.81
2023-04-16T04:52:31.823Z,10.89
2023-04-16T04:55:04.574Z,10.97
2023-04-16T04:57:40.807Z,11.01
2023-04-16T05:00:17.375Z,11.07
2023-04-16T05:03:12.698Z,11.06
2023-04-16T05:05:46.891Z,11.11
2023-04-16T05:08:19.158Z,11.19
2023-04-16T05:10:50.841Z,11.22
2023-04-16T05:13:23.365Z,11.26
2023-04-16T05:15:56.061Z,11.31
2023-04-16T05:18:34.023Z,11.25
2023-04-16T05:21:10.000Z,11.32
2023-04-16T05:23:43.679Z,11.31
2023-04-16T05:26:20.932Z,11.35
2023-04-16T05:28:59.226Z,11.33
2023-04-16T05:31:36.905Z,11.38
2023-04-16T05:34:16.519Z,11.40
2023-04-16T05:37:02.822Z,11.43
2023-04-16T05:39:42.446Z,11.41
2023-04-16T05:42:12.984Z,11.43
2023-04-16T05:45:02.917Z,11.45
2023-04-16T05:47:41.256Z,11.54
2023-04-16T05:50:21.916Z,11.55
2023-04-16T05:52:58.914Z,11.61
2023-04-16T05:55:37.366Z,11.58
2023-04-16T05:58:12.506Z,11.68
2023-04-16T06:00:45.218Z,11.75
2023-04-16T06:03:25.627Z,11.83
2023-04-16T06:06:02.700Z,11.83
2023-04-16T06:08:46.302Z,11.88
2023-04-16T06:11:26.299Z,11.91
2023-04-16T06:14:06.739Z,11.89
2023-04-16T06:16:41.656Z,12.04
2023-04-16T06:19:17.522Z,12.16
2023-04-16T06:21:58.134Z,12.21
2023-04-16T06:24:33.882Z,12.34
2023-04-16T06:27:06.702Z,12.40
2023-04-16T06:29:42.572Z,12.45
2023-04-16T06:32:21.679Z,12.51
2023-04-16T06:35:07.556Z,12.58
2023-04-16T06:37:48.622Z,12.63
2023-04-16T06:40:36.783Z,12.72
2023-04-16T06:43:11.725Z,12.86
2023-04-16T06:45:51.020Z,12.82
2023-04-16T06:48:23.318Z,12.93
2023-04-16T06:51:03.218Z,12.95
2023-04-16T06:53:44.387Z,12.88
2023-04-16T06:56:18.001Z,13.15
2023-04-16T06:59:01.404Z,13.23
2023-04-16T07:01:45.683Z,13.29
2023-04-16T07:04:21.935Z,13.36
2023-04-16T07:07:02.422Z,13.33
2023-04-16T07:09:37.400Z,13.31
2023-04-16T07:12:13.664Z,13.24
2023-04-16T07:14:56.759Z,13.39
2023-04-16T07:17:33.573Z,13.38
2023-04-16T07:20:08.412Z,13.49
2023-04-16T07:22:45.928Z,13.48
2023-04-16T07:25:25.595Z,13.55
2023-04-16T07:28:10.295Z,13.58
2023-04-16T07:31:00.694Z,13.67
2023-04-16T07:33:35.831Z,13.41
2023-04-16T07:36:13.786Z,13.47
2023-04-16T07:38:57.467Z,13.64
2023-04-16T07:41:37.995Z,13.57
2023-04-16T07:44:13.590Z,13.63
2023-04-16T07:46:48.523Z,13.69
2023-04-16T07:49:22.909Z,13.72
2023-04-16T07:51:58.721Z,13.90
2023-04-16T07:54:39.265Z,14.04
2023-04-16T07:57:22.567Z,14.20
2023-04-16T07:59:56.232Z,14.06
2023-04-16T08:02:33.749Z,14.24
2023-04-16T08:05:07.061Z,14.32
2023-04-16T08:07:51.063Z,14.47
2023-04-16T08:10:26.961Z,14.69
2023-04-16T08:13:12.923Z,14.74
2023-04-16T08:15:48.254Z,15.00
2023-04-16T08:18:21.404Z,15.14
2023-04-16T08:20:57.923Z,15.16
2023-04-16T08:23:46.581Z,15.26
2023-04-16T08:26:22.391Z,15.49
2023-04-16T08:29:11.792Z,15.64
2023-04-16T08:31:45.257Z,15.79
2023-04-16T08:34:21.677Z,15.67
2023-04-16T08:36:58.855Z,15.96
2023-04-16T08:39:40.553Z,15.93
2023-04-16T08:42:28.524Z,15.98
2023-04-16T08:45:19.626Z,15.99
2023-04-16T08:47:56.850Z,16.11
2023-04-16T08:50:38.014Z,16.16
2023-04-16T08:53:26.907Z,16.39
2023-04-16T08:56:05.832Z,16.62
2023-04-16T08:58:41.950Z,16.75
2023-04-16T09:01:26.161Z,16.94
2023-04-16T09:04:09.494Z,17.07
2023-04-16T09:06:57.932Z,17.23
2023-04-16T09:09:39.618Z,17.34
2023-04-16T09:12:20.136Z,17.48
2023-04-16T09:14:53.590Z,17.65
2023-04-16T09:17:29.164Z,17.71
2023-04-16T09:20:35.288Z,17.90
2023-04-16T09:25:55.883Z,18.17
2023-04-16T09:28:51.424Z,18.29
2023-04-16T09:31:24.776Z,18.41
2023-04-16T09:34:11.636Z,18.55
2023-04-16T09:36:53.705Z,18.67
2023-04-16T09:39:27.714Z,18.79
2023-04-16T09:42:00.188Z,18.93
2023-04-16T09:44:47.464Z,18.94
2023-04-16T09:47:26.860Z,18.96
2023-04-16T09:50:03.727Z,19.14
2023-04-16T09:52:41.665Z,19.27
2023-04-16T09:55:18.855Z,19.24
2023-04-16T09:57:52.102Z,19.33
2023-04-16T10:00:26.905Z,19.26
2023-04-16T10:03:19.851Z,19.28
2023-04-16T10:06:05.664Z,19.41
2023-04-16T10:08:40.493Z,19.55
2023-04-16T10:11:21.722Z,19.67
2023-04-16T10:13:55.491Z,19.83
2023-04-16T10:16:34.436Z,19.86
2023-04-16T10:19:11.369Z,20.05
2023-04-16T10:21:52.456Z,20.24
2023-04-16T10:24:40.340Z,20.45
2023-04-16T10:27:13.728Z,20.59
2023-04-16T10:29:54.245Z,20.48
2023-04-16T10:32:34.887Z,20.33
2023-04-16T10:35:10.829Z,20.26
2023-04-16T10:37:55.774Z,20.19
2023-04-16T10:40:32.542Z,20.19
2023-04-16T10:43:15.984Z,20.32
2023-04-16T10:45:48.984Z,20.14
2023-04-16T10:48:35.705Z,20.12
2023-04-16T10:51:42.237Z,20.37
2023-04-16T10:54:35.637Z,20.46
2023-04-16T10:57:12.946Z,20.70
2023-04-16T10:59:53.623Z,20.83
2023-04-16T11:02:41.666Z,20.85
2023-04-16T11:05:20.276Z,20.95
2023-04-16T11:07:53.147Z,21.00
2023-04-16T11:10:45.383Z,21.22
2023-04-16T11:13:26.230Z,21.25
2023-04-16T11:16:17.895Z,21.35
2023-04-16T11:18:53.964Z,21.32
2023-04-16T11:21:31.492Z,21.48
2023-04-16T11:24:16.489Z,21.41
2023-04-16T11:26:55.978Z,21.58
2023-04-16T11:29:30.775Z,21.91
2023-04-16T11:32:09.805Z,22.01
2023-04-16T11:34:57.032Z,22.09
2023-04-16T11:37:40.827Z,22.14
2023-04-16T11:40:15.769Z,22.19
2023-04-16T11:42:53.830Z,22.11
2023-04-16T11:45:37.951Z,22.12
2023-04-16T11:48:15.102Z,22.05
2023-04-16T11:50:50.073Z,22.20
2023-04-16T11:53:25.807Z,22.22
2023-04-16T11:56:10.369Z,22.06
2023-04-16T11:59:10.852Z,22.22
2023-04-16T12:01:50.287Z,22.26
2023-04-16T12:04:25.789Z,22.23
2023-04-16T12:07:14.652Z,22.57
2023-04-16T12:09:48.720Z,22.73
2023-04-16T12:12:38.532Z,22.91
2023-04-16T12:15:21.441Z,23.04
2023-04-16T12:17:54.813Z,23.15
2023-04-16T12:20:34.603Z,23.23
2023-04-16T12:23:11.714Z,23.32
2023-04-16T12:25:51.611Z,23.27
2023-04-16T12:28:39.130Z,23.20
2023-04-16T12:31:14.969Z,23.25
2023-04-16T12:34:13.452Z,22.98
2023-04-16T12:36:48.761Z,22.78
2023-04-16T12:39:42.572Z,22.67
2023-04-16T12:42:19.123Z,22.65
2023-04-16T12:45:09.611Z,22.59
2023-04-16T12:47:51.154Z,22.66
2023-04-16T12:50:31.744Z,22.79
2023-04-16T12:53:07.708Z,22.63
2023-04-16T12:55:46.666Z,22.74
2023-04-16T12:58:24.830Z,22.48
2023-04-16T13:01:07.174Z,23.00
2023-04-16T13:03:45.567Z,23.18
2023-04-16T13:06:20.447Z,23.29
2023-04-16T13:08:57.277Z,23.62
2023-04-16T13:11:31.665Z,23.74
2023-04-16T13:14:07.389Z,23.61
2023-04-16T13:16:49.213Z,23.56
2023-04-16T13:19:27.612Z,23.66
2023-04-16T13:22:05.147Z,23.49
2023-04-16T13:24:43.420Z,23.42
2023-04-16T13:27:27.201Z,23.31
2023-04-16T13:30:04.642Z,23.10
2023-04-16T13:32:42.155Z,22.87
2023-04-16T13:35:22.997Z,22.39
2023-04-16T13:38:05.794Z,21.99
2023-04-16T13:40:45.820Z,21.39
2023-04-16T13:43:22.824Z,21.32
2023-04-16T13:45:59.326Z,21.36
2023-04-16T13:48:34.686Z,21.27
2023-04-16T13:51:15.812Z,21.14
2023-04-16T13:53:51.260Z,20.96
2023-04-16T13:56:25.564Z,20.90
2023-04-16T13:59:01.705Z,20.95
2023-04-16T14:01:34.466Z,20.81
2023-04-16T14:04:11.320Z,20.79
2023-04-16T14:06:46.329Z,20.73
2023-04-16T14:09:21.016Z,20.59
2023-04-16T14:11:57.093Z,20.57
2023-04-16T14:14:39.177Z,20.61
2023-04-16T14:17:16.456Z,20.56
2023-04-16T14:19:52.972Z,20.48
2023-04-16T14:22:40.124Z,20.51
2023-04-16T14:25:19.484Z,19.97
2023-04-16T14:27:57.224Z,20.30
2023-04-16T14:30:29.916Z,20.45
2023-04-16T14:33:04.202Z,20.39
2023-04-16T14:35:42.176Z,20.40
2023-04-16T14:38:20.853Z,20.39
2023-04-16T14:40:53.861Z,20.34
2023-04-16T14:43:35.862Z,20.38
2023-04-16T14:46:12.023Z,20.44
2023-04-16T14:48:49.374Z,20.40
2023-04-16T14:51:30.458Z,20.37
2023-04-16T14:54:22.875Z,20.40
2023-04-16T14:57:00.142Z,20.49
2023-04-16T14:59:43.662Z,20.40
2023-04-16T15:02:21.829Z,20.51
2023-04-16T15:04:59.884Z,20.42
2023-04-16T15:07:38.763Z,20.21
2023-04-16T15:10:18.985Z,20.29
2023-04-16T15:13:05.546Z,20.42
2023-04-16T15:15:37.931Z,20.29
2023-04-16T15:18:15.829Z,20.42
2023-04-16T15:20:48.472Z,20.41
2023-04-16T15:23:23.829Z,20.40
2023-04-16T15:26:00.957Z,20.47
2023-04-16T15:28:33.855Z,20.59
2023-04-16T15:31:12.396Z,20.47
2023-04-16T15:33:49.070Z,20.64
2023-04-16T15:36:24.509Z,20.38
2023-04-16T15:39:06.651Z,20.09
2023-04-16T15:41:59.334Z,20.03
2023-04-16T15:44:38.988Z,19.82
2023-04-16T15:47:19.173Z,19.87
2023-04-16T15:49:57.333Z,19.74
2023-04-16T15:52:35.233Z,19.78
2023-04-16T15:55:07.288Z,19.66
2023-04-16T15:57:47.986Z,19.48
2023-04-16T16:00:24.706Z,19.24
2023-04-16T16:03:02.877Z,19.39
2023-04-16T16:05:42.949Z,19.51
2023-04-16T16:08:16.870Z,19.52
2023-04-16T16:10:59.533Z,19.54
2023-04-16T16:13:39.182Z,19.56
2023-04-16T16:16:10.978Z,19.54
2023-04-16T16:18:52.229Z,19.47
2023-04-16T16:21:30.539Z,19.39
2023-04-16T16:24:19.595Z,19.44
2023-04-16T16:27:01.897Z,19.37
2023-04-16T16:29:36.583Z,19.22
2023-04-16T16:32:09.089Z,19.09
2023-04-16T16:34:44.865Z,18.99
2023-04-16T16:37:22.457Z,18.94
2023-04-16T16:39:57.843Z,18.71
2023-04-16T16:42:29.674Z,18.81
2023-04-16T16:45:08.398Z,18.71
2023-04-16T16:47:45.868Z,18.65
2023-04-16T16:50:33.433Z,18.47
2023-04-16T16:53:10.683Z,18.44
2023-04-16T16:55:45.358Z,18.43
2023-04-16T16:58:21.777Z,18.42
2023-04-16T17:01:02.828Z,18.21
2023-04-16T17:03:41.411Z,18.16
2023-04-16T17:06:18.465Z,18.02
2023-04-16T17:09:13.515Z,17.88
2023-04-16T17:11:48.235Z,17.75
2023-04-16T17:14:29.380Z,17.75
2023-04-16T17:17:05.022Z,17.63
2023-04-16T17:19:42.239Z,17.55
2023-04-16T17:22:15.113Z,17.39
2023-04-16T17:24:49.959Z,17.26
2023-04-16T17:27:28.876Z,17.13
2023-04-16T17:30:07.431Z,17.13
2023-04-16T17:32:45.869Z,17.14
2023-04-16T17:35:24.271Z,16.91
2023-04-16T17:38:11.064Z,17.02
2023-04-16T17:40:51.691Z,16.98
2023-04-16T17:43:28.488Z,16.79
2023-04-16T17:46:03.269Z,16.79
2023-04-16T17:48:40.019Z,16.81
2023-04-16T17:51:22.271Z,16.71
2023-04-16T17:53:59.900Z,16.73
2023-04-16T17:56:33.637Z,16.64
2023-04-16T17:59:04.149Z,16.58
2023-04-16T18:01:38.873Z,16.47
2023-04-16T18:04:19.122Z,16.43
2023-04-16T18:06:57.500Z,16.25
2023-04-16T18:09:38.019Z,16.20
2023-04-16T18:12:11.979Z,16.21
2023-04-16T18:14:52.661Z,16.11
2023-04-16T18:17:26.705Z,16.05
2023-04-16T18:20:09.956Z,16.09
2023-04-16T18:22:50.736Z,16.08
2023-04-16T18:25:35.061Z,15.99
2023-04-16T18:28:15.904Z,15.99
2023-04-16T18:30:58.515Z,15.99
2023-04-16T18:36:17.157Z,15.97
2023-04-16T18:39:00.116Z,15.98
2023-04-16T18:41:35.912Z,15.98
2023-04-16T18:44:20.046Z,15.97
2023-04-16T18:46:55.835Z,15.96
2023-04-16T18:49:37.167Z,16.06
2023-04-16T18:52:16.448Z,16.10
2023-04-16T18:54:47.617Z,15.99
2023-04-16T18:57:34.423Z,15.95
2023-04-16T19:00:24.026Z,15.87
2023-04-16T19:02:55.074Z,15.80
2023-04-16T19:05:31.071Z,15.91
2023-04-16T19:08:24.114Z,15.80
2023-04-16T19:10:58.897Z,15.71
2023-04-16T19:13:37.177Z,15.77
2023-04-16T19:16:13.321Z,15.69
2023-04-16T19:18:57.806Z,15.73
2023-04-16T19:21:35.829Z,15.65
2023-04-16T19:24:10.206Z,15.67
2023-04-16T19:26:45.564Z,15.60
2023-04-16T19:29:29.957Z,15.39
2023-04-16T19:32:05.409Z,15.40
2023-04-16T19:34:42.247Z,15.14
2023-04-16T19:37:21.826Z,15.13
2023-04-16T19:40:00.277Z,15.18
2023-04-16T19:42:39.424Z,14.88
2023-04-16T19:45:19.529Z,15.09
2023-04-16T19:48:01.534Z,15.14
2023-04-16T19:50:39.551Z,15.14
2023-04-16T19:56:14.574Z,15.08
2023-04-16T19:58:53.320Z,15.17
2023-04-16T20:01:28.456Z,15.20
2023-04-16T20:04:05.352Z,15.26
2023-04-16T20:06:52.236Z,15.20
2023-04-16T20:09:42.885Z,15.45
2023-04-16T20:12:16.903Z,15.54
2023-04-16T20:14:56.746Z,15.59
2023-04-16T20:17:34.317Z,15.58
2023-04-16T20:20:12.670Z,15.64
2023-04-16T20:22:45.275Z,15.68
2023-04-16T20:25:19.776Z,15.71
2023-04-16T20:27:58.431Z,15.77
2023-04-16T20:30:31.207Z,15.79
2023-04-16T20:33:06.201Z,15.84
2023-04-16T20:35:42.210Z,15.88
2023-04-16T20:38:25.751Z,15.92
2023-04-16T20:41:06.814Z,15.93
2023-04-16T20:43:46.128Z,15.97
2023-04-16T20:46:28.088Z,15.95
2023-04-16T20:49:08.063Z,15.97
2023-04-16T20:51:47.936Z,15.91
2023-04-16T20:54:21.230Z,16.01
2023-04-16T20:56:58.071Z,15.96
2023-04-16T20:59:42.915Z,15.87
2023-04-16T21:02:18.839Z,15.81
2023-04-16T21:04:56.342Z,15.87
2023-04-16T21:07:31.243Z,15.86
2023-04-16T21:10:07.260Z,15.87
2023-04-16T21:12:40.743Z,15.92
2023-04-16T21:15:24.435Z,15.96
2023-04-16T21:18:01.295Z,15.95
2023-04-16T21:20:39.293Z,15.96
2023-04-16T21:23:22.273Z,15.95
2023-04-16T21:25:58.062Z,15.94
2023-04-16T21:28:42.164Z,15.85
2023-04-16T21:31:17.251Z,15.81
2023-04-16T21:33:51.942Z,15.74
2023-04-16T21:36:23.113Z,15.39
2023-04-16T21:38:58.553Z,15.63
2023-04-16T21:41:31.699Z,15.55
2023-04-16T21:44:08.333Z,15.57
2023-04-16T21:46:48.350Z,15.53
2023-04-16T21:49:25.523Z,15.52
2023-04-16T21:52:07.708Z,15.45
2023-04-16T21:54:48.345Z,15.39
2023-04-16T21:57:18.915Z,15.32
2023-04-16T21:59:53.381Z,15.27
2023-04-16T22:02:37.904Z,15.20
2023-04-16T22:05:16.268Z,15.14
2023-04-16T22:07:47.705Z,15.09
2023-04-16T22:10:28.889Z,15.04
2023-04-16T22:13:02.043Z,15.01
2023-04-16T22:15:36.096Z,15.00
2023-04-16T22:18:17.999Z,14.99
2023-04-16T22:20:57.467Z,15.01
2023-04-16T22:23:33.447Z,15.04
2023-04-16T22:26:13.676Z,15.04
2023-04-16T22:28:50.074Z,15.05
2023-04-16T22:31:32.743Z,15.06
2023-04-16T22:34:12.659Z,15.06
2023-04-16T22:36:49.211Z,15.07
2023-04-16T22:39:25.985Z,15.06
2023-04-16T22:42:03.711Z,15.06
2023-04-16T22:44:39.335Z,15.04
2023-04-16T22:47:14.501Z,15.02
2023-04-16T22:49:55.493Z,14.98
2023-04-16T22:52:31.457Z,14.95
2023-04-16T22:55:06.086Z,14.91
2023-04-16T22:57:46.310Z,14.89
2023-04-16T23:00:21.952Z,14.88
2023-04-16T23:03:06.167Z,14.84
2023-04-16T23:05:47.494Z,14.82
2023-04-16T23:08:27.094Z,14.84
2023-04-16T23:11:10.755Z,14.81
2023-04-16T23:13:46.003Z,14.85
2023-04-16T23:16:21.545Z,14.82
2023-04-16T23:18:55.139Z,14.79
2023-04-16T23:21:28.967Z,14.77
2023-04-16T23:24:07.095Z,14.76
2023-04-16T23:26:39.275Z,14.71
2023-04-16T23:29:17.483Z,14.65
2023-04-16T23:31:52.780Z,14.66
2023-04-16T23:34:35.918Z,14.64
2023-04-16T23:37:22.249Z,14.61
2023-04-16T23:40:02.001Z,14.52
2023-04-16T23:42:41.150Z,14.52
2023-04-16T23:45:17.108Z,14.53
2023-04-16T23:47:53.875Z,14.54
2023-04-16T23:50:40.052Z,14.35
2023-04-16T23:53:15.909Z,14.41
2023-04-16T23:55:49.598Z,14.48
2023-04-16T23:58:25.183Z,14.47
